createdAt,value
2018-09-16T00:00:33.184Z,2.57
2018-09-16T00:03:36.420Z,2.40
2018-09-16T00:06:40.861Z,2.80
2018-09-16T00:09:44.160Z,3.37
2018-09-16T00:12:47.444Z,2.87
2018-09-16T00:15:50.734Z,2.87
2018-09-16T00:18:54.043Z,2.60
2018-09-16T00:21:57.371Z,2.40
2018-09-16T00:25:01.655Z,2.67
2018-09-16T00:28:05.206Z,2.50
2018-09-16T00:31:09.519Z,3.03
2018-09-16T00:34:12.805Z,2.60
2018-09-16T00:37:16.075Z,2.63
2018-09-16T00:40:19.420Z,2.63
2018-09-16T00:43:22.684Z,2.80
2018-09-16T00:46:25.996Z,2.40
2018-09-16T00:49:29.750Z,2.60
2018-09-16T00:52:33.995Z,2.80
2018-09-16T00:55:37.343Z,2.77
2018-09-16T00:58:41.620Z,2.70
2018-09-16T01:01:44.917Z,2.23
2018-09-16T01:04:48.230Z,2.63
2018-09-16T01:07:51.551Z,2.60
2018-09-16T01:10:56.982Z,2.33
2018-09-16T01:14:01.082Z,2.43
2018-09-16T01:17:04.390Z,2.70
2018-09-16T01:20:07.704Z,2.70
2018-09-16T01:23:10.978Z,2.50
2018-09-16T01:26:14.264Z,2.50
2018-09-16T01:29:17.456Z,3.03
2018-09-16T01:32:20.756Z,2.63
2018-09-16T01:35:24.062Z,2.80
2018-09-16T01:38:27.270Z,2.27
2018-09-16T01:41:30.848Z,2.20
2018-09-16T01:44:34.185Z,2.30
2018-09-16T01:47:37.510Z,2.50
2018-09-16T01:50:40.856Z,2.20
2018-09-16T01:53:44.128Z,2.30
2018-09-16T01:56:47.373Z,2.40
2018-09-16T01:59:50.763Z,2.60
2018-09-16T02:02:55.005Z,2.83
2018-09-16T02:05:58.266Z,2.27
2018-09-16T02:09:01.548Z,2.37
2018-09-16T02:12:04.844Z,2.70
2018-09-16T02:15:08.031Z,2.50
2018-09-16T02:18:11.388Z,2.60
2018-09-16T02:21:14.644Z,2.53
2018-09-16T02:24:17.862Z,2.50
2018-09-16T02:27:21.007Z,2.70
2018-09-16T02:30:24.350Z,2.73
2018-09-16T02:33:27.721Z,2.70
2018-09-16T02:36:31.060Z,2.50
2018-09-16T02:39:35.867Z,2.50
2018-09-16T02:42:39.641Z,2.30
2018-09-16T02:45:42.983Z,2.30
2018-09-16T02:48:46.247Z,2.63
2018-09-16T02:51:49.454Z,2.70
2018-09-16T02:54:53.779Z,2.17
2018-09-16T02:57:57.096Z,2.10
2018-09-16T03:01:00.405Z,2.30
2018-09-16T03:04:03.686Z,2.37
2018-09-16T03:07:07.006Z,2.33
2018-09-16T03:10:11.732Z,2.20
2018-09-16T03:13:15.453Z,2.40
2018-09-16T03:16:18.697Z,2.70
2018-09-16T03:19:21.919Z,2.50
2018-09-16T03:22:25.215Z,2.47
2018-09-16T03:25:30.778Z,2.33
2018-09-16T03:28:34.063Z,2.33
2018-09-16T03:31:37.356Z,2.30
2018-09-16T03:34:40.646Z,2.53
2018-09-16T03:37:43.973Z,2.47
2018-09-16T03:40:47.227Z,2.30
2018-09-16T03:43:50.568Z,2.50
2018-09-16T03:46:53.889Z,2.63
2018-09-16T03:49:57.047Z,2.57
2018-09-16T03:53:01.104Z,2.30
2018-09-16T03:56:04.348Z,2.40
2018-09-16T03:59:07.543Z,2.70
2018-09-16T04:02:10.852Z,2.60
2018-09-16T04:05:14.129Z,2.43
2018-09-16T04:08:17.321Z,2.27
2018-09-16T04:11:20.649Z,2.47
2018-09-16T04:14:23.984Z,2.40
2018-09-16T04:17:27.230Z,2.13
2018-09-16T04:20:31.400Z,2.60
2018-09-16T04:23:39.164Z,2.57
2018-09-16T04:26:42.450Z,2.47
2018-09-16T04:29:45.716Z,2.50
2018-09-16T04:32:49.036Z,2.57
2018-09-16T04:35:52.202Z,2.43
2018-09-16T04:38:55.859Z,2.57
2018-09-16T04:42:00.190Z,2.43
2018-09-16T04:45:03.464Z,2.60
2018-09-16T04:48:06.756Z,2.73
2018-09-16T04:51:10.037Z,2.93
2018-09-16T04:54:13.509Z,2.67
2018-09-16T04:57:16.974Z,2.70
2018-09-16T05:00:20.234Z,2.60
2018-09-16T05:03:23.544Z,2.50
2018-09-16T05:06:26.842Z,2.73
2018-09-16T05:09:31.697Z,2.40
2018-09-16T05:12:35.004Z,2.43
2018-09-16T05:15:38.307Z,2.50
2018-09-16T05:18:41.551Z,2.70
2018-09-16T05:21:44.944Z,2.30
2018-09-16T05:24:48.598Z,2.50
2018-09-16T05:27:51.758Z,2.87
2018-09-16T05:30:54.951Z,2.50
2018-09-16T05:33:58.272Z,2.43
2018-09-16T05:37:02.635Z,2.63
2018-09-16T05:40:06.044Z,2.60
2018-09-16T05:43:09.419Z,2.20
2018-09-16T05:46:13.710Z,2.40
2018-09-16T05:49:17.004Z,2.77
2018-09-16T05:52:20.280Z,2.70
2018-09-16T05:55:23.622Z,2.40
2018-09-16T05:58:27.212Z,2.70
2018-09-16T06:01:31.400Z,2.77
2018-09-16T06:04:34.819Z,2.53
2018-09-16T06:07:38.113Z,2.93
2018-09-16T06:10:41.629Z,2.60
2018-09-16T06:13:44.924Z,2.43
2018-09-16T06:16:48.115Z,2.30
2018-09-16T06:19:51.383Z,2.63
2018-09-16T06:22:54.678Z,2.50
2018-09-16T06:25:57.845Z,2.30
2018-09-16T06:29:02.302Z,2.50
2018-09-16T06:32:05.599Z,2.00
2018-09-16T06:35:08.828Z,2.43
2018-09-16T06:38:12.175Z,2.20
2018-09-16T06:41:15.459Z,2.23
2018-09-16T06:44:19.054Z,2.20
2018-09-16T06:47:22.555Z,1.90
2018-09-16T06:50:25.938Z,2.30
2018-09-16T06:53:29.240Z,2.37
2018-09-16T06:56:32.533Z,2.17
2018-09-16T06:59:35.812Z,1.83
2018-09-16T07:02:39.127Z,1.80
2018-09-16T07:05:42.417Z,2.10
2018-09-16T07:08:45.706Z,2.20
2018-09-16T07:11:48.872Z,2.03
2018-09-16T07:14:52.179Z,2.30
2018-09-16T07:17:55.519Z,1.73
2018-09-16T07:20:59.902Z,1.93
2018-09-16T07:24:03.273Z,1.77
2018-09-16T07:27:06.519Z,1.60
2018-09-16T07:30:09.936Z,1.93
2018-09-16T07:33:14.224Z,2.03
2018-09-16T07:36:17.542Z,2.07
2018-09-16T07:39:20.843Z,2.10
2018-09-16T07:42:24.018Z,1.80
2018-09-16T07:45:27.352Z,1.97
2018-09-16T07:48:30.623Z,2.07
2018-09-16T07:51:34.007Z,2.10
2018-09-16T07:54:37.251Z,2.00
2018-09-16T07:57:40.648Z,2.00
2018-09-16T08:00:44.969Z,1.97
2018-09-16T08:03:48.130Z,2.07
2018-09-16T08:06:51.476Z,1.87
2018-09-16T08:09:55.757Z,1.90
2018-09-16T08:12:59.083Z,2.20
2018-09-16T08:16:02.343Z,1.90
2018-09-16T08:19:05.838Z,2.53
2018-09-16T08:22:09.162Z,1.70
2018-09-16T08:25:13.091Z,1.90
2018-09-16T08:28:16.354Z,1.80
2018-09-16T08:34:57.651Z,1.90
2018-09-16T08:38:01.028Z,2.10
2018-09-16T08:41:04.439Z,2.27
2018-09-16T08:44:07.806Z,2.20
2018-09-16T08:47:11.301Z,1.90
2018-09-16T08:50:14.742Z,1.93
2018-09-16T08:53:18.320Z,2.00
2018-09-16T08:56:21.730Z,1.90
2018-09-16T09:03:03.318Z,2.00
2018-09-16T09:06:06.855Z,2.03
2018-09-16T09:12:48.406Z,1.90
2018-09-16T09:15:51.891Z,2.10
2018-09-16T09:18:55.270Z,1.97
2018-09-16T09:21:58.696Z,2.37
2018-09-16T09:25:02.121Z,1.77
2018-09-16T09:28:05.552Z,2.07
2018-09-16T09:31:10.724Z,1.90
2018-09-16T09:34:14.568Z,2.10
2018-09-16T09:40:56.056Z,2.20
2018-09-16T09:43:59.584Z,2.23
2018-09-16T09:47:03.217Z,2.17
2018-09-16T09:50:06.812Z,2.00
2018-09-16T09:53:10.487Z,2.43
2018-09-16T09:56:14.240Z,2.23
2018-09-16T09:59:17.795Z,2.23
2018-09-16T10:02:22.362Z,1.90
2018-09-16T10:05:26.506Z,2.97
2018-09-16T10:08:29.975Z,1.80
2018-09-16T10:11:33.369Z,2.00
2018-09-16T10:14:37.818Z,2.23
2018-09-16T10:17:41.306Z,2.20
2018-09-16T10:20:44.751Z,2.03
2018-09-16T10:23:48.234Z,2.07
2018-09-16T10:26:51.813Z,2.30
2018-09-16T10:29:55.211Z,2.23
2018-09-16T10:32:58.681Z,2.07
2018-09-16T10:36:03.293Z,2.20
2018-09-16T10:39:08.827Z,2.60
2018-09-16T10:42:12.497Z,2.20
2018-09-16T10:45:16.000Z,2.50
2018-09-16T10:48:19.553Z,2.60
2018-09-16T10:51:23.038Z,2.73
2018-09-16T10:54:26.707Z,2.30
2018-09-16T10:57:31.896Z,2.57
2018-09-16T11:00:36.232Z,2.73
2018-09-16T11:03:39.728Z,2.70
2018-09-16T11:06:43.201Z,2.67
2018-09-16T11:09:47.218Z,2.47
2018-09-16T11:12:50.863Z,2.70
2018-09-16T11:15:54.921Z,2.80
2018-09-16T11:18:58.522Z,2.70
2018-09-16T11:22:02.110Z,2.60
2018-09-16T11:25:06.829Z,2.63
2018-09-16T11:28:10.322Z,2.50
2018-09-16T11:31:13.768Z,2.40
2018-09-16T11:34:17.196Z,2.50
2018-09-16T11:37:20.761Z,2.77
2018-09-16T11:40:24.212Z,2.97
2018-09-16T11:43:28.582Z,3.37
2018-09-16T11:46:31.975Z,2.60
2018-09-16T11:49:35.424Z,3.07
2018-09-16T11:52:38.910Z,2.60
2018-09-16T11:55:42.394Z,3.00
2018-09-16T11:58:45.872Z,2.63
2018-09-16T12:01:49.304Z,2.50
2018-09-16T12:04:53.375Z,3.00
2018-09-16T12:07:57.816Z,2.93
2018-09-16T12:11:01.226Z,2.80
2018-09-16T12:14:04.764Z,2.77
2018-09-16T12:17:08.274Z,3.00
2018-09-16T12:20:11.828Z,3.10
2018-09-16T12:23:18.715Z,2.67
2018-09-16T12:26:22.240Z,3.23
2018-09-16T12:29:26.155Z,3.00
2018-09-16T12:32:29.974Z,2.67
2018-09-16T12:35:34.290Z,2.90
2018-09-16T12:38:37.695Z,2.73
2018-09-16T12:41:41.402Z,2.83
2018-09-16T12:44:44.794Z,2.90
2018-09-16T12:47:48.765Z,3.07
2018-09-16T12:50:53.210Z,3.03
2018-09-16T12:53:56.597Z,3.10
2018-09-16T12:57:00.717Z,3.03
2018-09-16T13:00:04.184Z,2.80
2018-09-16T13:03:07.688Z,3.10
2018-09-16T13:06:11.220Z,2.83
2018-09-16T13:09:15.040Z,3.00
2018-09-16T13:12:18.827Z,2.60
2018-09-16T13:15:22.289Z,2.60
2018-09-16T13:18:26.368Z,2.50
2018-09-16T13:21:30.294Z,2.63
2018-09-16T13:24:33.688Z,2.90
2018-09-16T13:27:37.099Z,2.90
2018-09-16T13:30:40.534Z,2.60
2018-09-16T13:33:44.347Z,3.03
2018-09-16T13:36:48.680Z,2.93
2018-09-16T13:39:52.959Z,2.70
2018-09-16T13:42:56.475Z,2.53
2018-09-16T13:46:00.084Z,2.43
2018-09-16T13:49:04.207Z,2.60
2018-09-16T13:52:07.626Z,4.23
2018-09-16T13:55:11.217Z,3.17
2018-09-16T13:58:14.701Z,5.30
2018-09-16T14:01:18.212Z,4.37
2018-09-16T14:04:21.678Z,3.00
2018-09-16T14:07:25.282Z,2.60
2018-09-16T14:10:28.948Z,2.40
2018-09-16T14:13:32.391Z,2.50
2018-09-16T14:16:35.969Z,2.40
2018-09-16T14:19:39.501Z,2.40
2018-09-16T14:22:43.270Z,2.57
2018-09-16T14:25:46.826Z,2.60
2018-09-16T14:28:50.303Z,2.40
2018-09-16T14:31:53.826Z,2.20
2018-09-16T14:34:57.298Z,2.50
2018-09-16T14:38:01.950Z,2.60
2018-09-16T14:41:05.544Z,2.50
2018-09-16T14:44:09.072Z,2.57
2018-09-16T14:47:12.582Z,2.57
2018-09-16T14:50:16.065Z,2.50
2018-09-16T14:53:19.569Z,2.60
2018-09-16T14:56:23.091Z,2.33
2018-09-16T14:59:26.542Z,2.50
2018-09-16T15:02:30.341Z,2.53
2018-09-16T15:05:33.844Z,2.80
2018-09-16T15:08:37.466Z,2.20
2018-09-16T15:11:40.959Z,2.33
2018-09-16T15:14:44.426Z,2.60
2018-09-16T15:17:48.060Z,2.60
2018-09-16T15:20:51.615Z,2.43
2018-09-16T15:23:55.221Z,2.40
2018-09-16T15:26:58.924Z,2.27
2018-09-16T15:30:04.371Z,2.23
2018-09-16T15:33:07.936Z,2.20
2018-09-16T15:36:11.391Z,2.20
2018-09-16T15:39:14.965Z,2.10
2018-09-16T15:42:18.461Z,2.17
2018-09-16T15:45:22.129Z,2.13
2018-09-16T15:48:26.377Z,2.37
2018-09-16T15:51:30.512Z,2.20
2018-09-16T15:54:34.201Z,2.13
2018-09-16T15:57:37.796Z,2.30
2018-09-16T16:00:41.556Z,2.30
2018-09-16T16:03:49.066Z,2.20
2018-09-16T16:06:54.412Z,2.20
2018-09-16T16:09:57.952Z,2.30
2018-09-16T16:13:02.079Z,2.30
2018-09-16T16:16:05.739Z,2.20
2018-09-16T16:19:09.505Z,2.20
2018-09-16T16:22:13.279Z,2.30
2018-09-16T16:25:16.805Z,2.10
2018-09-16T16:28:20.596Z,2.17
2018-09-16T16:31:25.147Z,2.40
2018-09-16T16:34:28.945Z,2.20
2018-09-16T16:37:32.547Z,2.40
2018-09-16T16:40:36.312Z,2.20
2018-09-16T16:43:39.885Z,2.20
2018-09-16T16:46:43.536Z,2.50
2018-09-16T16:49:47.024Z,2.30
2018-09-16T16:52:50.638Z,2.40
2018-09-16T16:55:54.066Z,2.50
2018-09-16T16:58:57.869Z,2.40
2018-09-16T17:02:03.076Z,2.50
2018-09-16T17:05:06.577Z,2.53
2018-09-16T17:08:10.080Z,2.63
2018-09-16T17:11:14.281Z,3.07
2018-09-16T17:14:17.801Z,3.10
2018-09-16T17:17:21.723Z,3.60
2018-09-16T17:20:25.700Z,3.63
2018-09-16T17:23:30.080Z,3.77
2018-09-16T17:26:33.572Z,3.37
2018-09-16T17:29:37.264Z,3.43
2018-09-16T17:32:40.759Z,3.33
2018-09-16T17:35:44.248Z,3.17
2018-09-16T17:38:48.555Z,3.17
2018-09-16T17:41:52.774Z,3.10
2018-09-16T17:44:56.229Z,2.97
2018-09-16T17:47:59.799Z,3.27
2018-09-16T17:51:03.349Z,4.17
2018-09-16T17:54:06.889Z,3.23
2018-09-16T17:57:10.730Z,3.23
2018-09-16T18:00:15.489Z,3.23
2018-09-16T18:03:19.069Z,3.40
2018-09-16T18:06:22.744Z,3.53
2018-09-16T18:09:28.137Z,3.47
2018-09-16T18:12:31.685Z,3.20
2018-09-16T18:15:35.701Z,3.70
2018-09-16T18:18:41.053Z,3.77
2018-09-16T18:21:44.914Z,3.83
2018-09-16T18:24:48.390Z,4.13
2018-09-16T18:27:51.961Z,3.60
2018-09-16T18:30:55.396Z,3.90
2018-09-16T18:33:59.918Z,4.03
2018-09-16T18:37:03.387Z,4.60
2018-09-16T18:40:06.852Z,3.67
2018-09-16T18:43:10.324Z,3.80
2018-09-16T18:46:13.725Z,3.27
2018-09-16T18:49:18.147Z,3.27
2018-09-16T18:52:21.617Z,3.33
2018-09-16T18:55:25.045Z,2.97
2018-09-16T18:58:28.421Z,4.20
2018-09-16T19:01:31.852Z,3.43
2018-09-16T19:04:35.351Z,3.40
2018-09-16T19:07:39.429Z,3.20
2018-09-16T19:10:42.869Z,3.40
2018-09-16T19:13:46.919Z,3.07
2018-09-16T19:16:50.761Z,3.10
2018-09-16T19:19:54.389Z,2.80
2018-09-16T19:22:57.853Z,2.90
2018-09-16T19:26:02.037Z,3.27
2018-09-16T19:29:05.811Z,3.17
2018-09-16T19:32:09.222Z,3.20
2018-09-16T19:35:12.692Z,3.33
2018-09-16T19:38:16.094Z,3.30
2018-09-16T19:41:19.564Z,3.17
2018-09-16T19:44:23.045Z,3.07
2018-09-16T19:47:27.289Z,3.23
2018-09-16T19:50:30.739Z,3.57
2018-09-16T19:53:34.178Z,3.20
2018-09-16T19:56:37.551Z,3.03
2018-09-16T19:59:41.011Z,3.30
2018-09-16T20:02:44.470Z,5.43
2018-09-16T20:05:47.886Z,3.30
2018-09-16T20:08:51.328Z,3.03
2018-09-16T20:11:56.289Z,2.90
2018-09-16T20:14:59.823Z,3.60
2018-09-16T20:18:03.399Z,3.40
2018-09-16T20:21:06.820Z,3.17
2018-09-16T20:24:10.432Z,3.27
2018-09-16T20:27:13.968Z,3.30
2018-09-16T20:30:17.498Z,3.10
2018-09-16T20:33:21.084Z,3.60
2018-09-16T20:36:24.953Z,3.40
2018-09-16T20:39:28.416Z,3.17
2018-09-16T20:42:31.978Z,3.07
2018-09-16T20:45:35.525Z,3.40
2018-09-16T20:48:39.074Z,3.30
2018-09-16T20:51:42.619Z,3.63
2018-09-16T20:54:46.190Z,3.43
2018-09-16T20:57:49.802Z,3.40
2018-09-16T21:00:53.317Z,3.47
2018-09-16T21:03:57.401Z,3.60
2018-09-16T21:07:00.861Z,3.90
2018-09-16T21:10:04.654Z,3.57
2018-09-16T21:13:08.191Z,3.73
2018-09-16T21:16:11.772Z,3.70
2018-09-16T21:19:16.323Z,3.83
2018-09-16T21:22:20.433Z,3.53
2018-09-16T21:25:24.038Z,3.83
2018-09-16T21:28:28.410Z,3.73
2018-09-16T21:31:31.857Z,3.37
2018-09-16T21:34:35.420Z,3.40
2018-09-16T21:37:39.025Z,3.67
2018-09-16T21:40:42.624Z,3.33
2018-09-16T21:43:46.783Z,3.57
2018-09-16T21:46:50.300Z,3.50
2018-09-16T21:49:53.764Z,3.00
2018-09-16T21:52:57.345Z,3.60
2018-09-16T21:56:01.114Z,3.77
2018-09-16T22:02:10.025Z,3.40
2018-09-16T22:05:13.630Z,3.70
2018-09-16T22:08:17.470Z,3.20
2018-09-16T22:11:21.098Z,3.50
2018-09-16T22:14:24.613Z,3.40
2018-09-16T22:17:28.245Z,3.43
2018-09-16T22:20:31.751Z,3.87
2018-09-16T22:23:35.634Z,3.10
2018-09-16T22:26:39.172Z,2.87
2018-09-16T22:29:42.691Z,3.57
2018-09-16T22:32:47.562Z,3.40
2018-09-16T22:35:52.357Z,3.37
2018-09-16T22:38:55.858Z,3.30
2018-09-16T22:41:59.340Z,3.50
2018-09-16T22:45:02.721Z,3.13
2018-09-16T22:48:08.586Z,3.47
2018-09-16T22:51:11.964Z,3.50
2018-09-16T22:54:17.149Z,3.30
2018-09-16T22:57:20.876Z,4.17
2018-09-16T23:00:24.795Z,3.30
2018-09-16T23:03:28.557Z,3.10
2018-09-16T23:06:33.672Z,3.20
2018-09-16T23:09:37.118Z,3.30
2018-09-16T23:12:41.195Z,3.30
2018-09-16T23:15:45.132Z,3.20
2018-09-16T23:18:48.712Z,3.20
2018-09-16T23:21:52.878Z,3.60
2018-09-16T23:24:56.256Z,3.60
2018-09-16T23:27:59.647Z,3.77
2018-09-16T23:31:03.067Z,3.40
2018-09-16T23:34:06.906Z,3.67
2018-09-16T23:37:10.491Z,3.80
2018-09-16T23:40:14.000Z,3.50
2018-09-16T23:43:18.570Z,3.53
2018-09-16T23:46:22.014Z,3.63
2018-09-16T23:49:25.408Z,3.70
2018-09-16T23:52:28.848Z,3.20
2018-09-16T23:55:32.317Z,3.40
2018-09-16T23:58:35.794Z,3.67
